Latest Weather Observations for Kalgoorlie-Boulder

IDW60801

Issued at 5:23 am WST Saturday 19 September 2020 (issued every 10 minutes, with the page automatically refreshed every 10 minutes)

About weather observations | Map of weather stations | Latest weather observations for WA | Other Formats
Station Details ID: 012038 Name: KALGOORLIE-BOULDER AIRPORT Lat: -30.78 Lon: 121.45 Height: 365.3 m
Data from the previous 72 hours. | See also: Recent months at Kalgoorlie-Boulder
Date/Time
WST
Temp
°C
App
Temp
°C
Dew
Point
°C
Rel
Hum
%
Delta-T
°C
Wind Press
QNH
hPa
Press
MSL
hPa
Rain since
9am
mm
Dir  Spd
km/h
Gust
km/h
Spd
kts
Gust
kts
19/05:00am 9.0 6.7 5.0 76 1.8 N 6 7 3 4 1007.5 1006.9 0.0
19/04:30am 9.9 7.4 4.9 71 2.3 N 7 9 4 5 1007.5 1006.9 0.0
19/04:00am 10.8 8.1 5.6 70 2.5 N 9 11 5 6 1007.5 1006.9 0.0
19/03:30am 11.0 8.2 5.3 68 2.7 NNW 9 11 5 6 1007.6 1007.0 0.0
19/03:00am 11.1 8.0 5.6 69 2.6 N 11 13 6 7 1008.0 1007.4 0.0
19/02:30am 11.3 9.0 5.6 68 2.7 N 7 9 4 5 1008.1 1007.5 0.0
19/02:00am 12.0 9.7 5.9 66 2.9 N 7 9 4 5 1008.8 1008.1 0.0
19/01:30am 12.0 9.8 6.1 67 2.8 N 7 7 4 4 1009.3 1008.7 0.0
19/01:00am 12.5 9.9 5.9 64 3.2 NNW 9 11 5 6 1009.8 1009.2 0.0
19/12:30am 13.0 10.0 6.1 63 3.3 N 11 11 6 6 1010.2 1009.6 0.0
19/12:00am 12.8 10.5 5.9 63 3.3 N 7 7 4 4 1010.5 1009.9 0.0
 
Date/Time
WST
Temp
°C
App
Temp
°C
Dew
Point
°C
Rel
Hum
%
Delta-T
°C
Wind Press
QNH
hPa
Press
MSL
hPa
Rain since
9am
mm
Dir  Spd
km/h
Gust
km/h
Spd
kts
Gust
kts
18/11:30pm 13.5 11.3 6.4 62 3.5 NNE 7 7 4 4 1010.9 1010.3 0.0
18/11:00pm 13.9 11.4 6.5 61 3.6 N 9 11 5 6 1011.1 1010.5 0.0
18/10:30pm 13.7 11.1 6.3 61 3.6 NNE 9 11 5 6 1011.4 1010.9 0.0
18/10:00pm 12.8 11.9 5.9 63 3.3 CALM 0 0 0 0 1011.7 1011.1 0.0
18/09:30pm 14.0 13.1 6.1 59 3.8 CALM 0 0 0 0 1012.0 1011.4 0.0
18/09:00pm 14.2 13.4 6.3 59 3.9 CALM 0 0 0 0 1012.4 1011.8 0.0
18/08:30pm 14.4 13.6 6.7 60 3.8 CALM 0 0 0 0 1012.7 1012.1 0.0
18/08:00pm 15.0 14.2 6.3 56 4.3 CALM 0 0 0 0 1012.6 1012.0 0.0
18/07:30pm 16.3 15.0 6.2 51 5.0 W 2 6 1 3 1012.9 1012.3 0.0
18/07:00pm 17.6 15.6 6.2 47 5.7 W 6 7 3 4 1013.1 1012.5 0.0
18/06:30pm 18.4 15.8 6.3 45 6.1 W 9 13 5 7 1013.0 1012.4 0.0
18/06:00pm 19.0 16.9 6.5 44 6.4 WNW 7 11 4 6 1012.7 1012.1 0.0
18/05:30pm 20.0 19.2 6.4 41 6.9 CALM 0 0 0 0 1012.6 1012.0 0.0
18/05:00pm 20.5 18.6 6.5 40 7.2 NW 6 13 3 7 1012.5 1011.9 0.0
18/04:30pm 20.6 18.7 6.9 41 7.1 N 6 9 3 5 1012.4 1011.8 0.0
18/04:00pm 20.4 18.5 6.7 41 7.1 WNW 6 9 3 5 1012.3 1011.7 0.0
18/03:30pm 20.3 18.2 6.6 41 7.0 ENE 7 11 4 6 1012.6 1012.0 0.0
18/03:00pm 20.1 17.6 6.5 41 7.0 NNE 9 15 5 8 1012.9 1012.3 0.0
18/02:30pm 20.0 17.7 7.4 44 6.6 N 9 20 5 11 1013.4 1012.8 0.0
18/02:00pm 19.4 17.1 7.5 46 6.2 NE 9 15 5 8 1013.7 1013.2 0.0
18/01:30pm 19.0 16.4 7.8 48 5.8 NNE 11 17 6 9 1014.1 1013.6 0.0
18/01:00pm 17.9 15.3 7.6 51 5.3 NE 11 19 6 10 1014.7 1014.1 0.0
18/12:30pm 17.5 15.0 8.1 54 4.9 NE 11 19 6 10 1015.5 1014.9 0.0
18/12:00pm 17.2 14.4 8.4 56 4.6 ENE 13 17 7 9 1016.1 1015.6 0.0
18/11:30am 15.9 13.3 7.9 59 4.1 ENE 11 17 6 9 1016.9 1016.4 0.0
18/11:00am 14.9 12.7 7.9 63 3.6 ESE 9 15 5 8 1017.6 1017.0 0.0
18/10:30am 13.6 11.3 7.6 67 3.0 S 9 17 5 9 1018.2 1017.6 0.0
18/10:00am 12.2 8.6 6.9 70 2.6 SSW 15 20 8 11 1018.7 1018.2 0.0
18/09:38am 11.8 8.3 7.3 74 2.2 SW 15 20 8 11 1019.1 1018.6 0.0
18/09:30am 11.7 8.2 7.2 74 2.2 SSW 15 20 8 11 1019.1 1018.6 0.0
18/09:00am 10.6 7.4 6.7 77 1.9 SSW 13 20 7 11 1019.5 1019.0 0.0
18/08:30am 9.5 5.9 6.8 83 1.3 SSW 15 20 8 11 1019.5 1019.0 0.0
18/08:00am 8.6 5.3 6.2 85 1.1 SSW 13 19 7 10 1019.6 1019.1 0.0
18/07:30am 8.1 4.4 6.2 88 0.9 SSW 15 20 8 11 1019.4 1018.9 0.0
18/07:00am 7.6 3.4 5.7 88 0.9 SSW 17 22 9 12 1019.3 1018.8 0.0
18/06:30am 7.7 3.8 5.3 85 1.1 SSW 15 19 8 10 1018.9 1018.4 0.0
18/06:00am 7.5 3.9 5.0 84 1.1 SSW 13 17 7 9 1018.7 1018.2 0.0
18/05:30am 7.1 3.5 4.9 86 1.0 SSW 13 20 7 11 1018.6 1018.1 0.0
18/05:28am 7.1 3.5 4.9 86 1.0 SSW 13 20 7 11 1018.7 1018.2 0.0
18/05:00am 6.1 2.8 4.4 89 0.7 SSW 11 11 6 6 1018.4 1017.9 0.0
18/04:30am 6.2 3.5 3.9 85 1.0 SSE 7 9 4 5 1018.1 1017.5 0.0
18/04:00am 7.2 3.9 4.7 84 1.1 SSE 11 19 6 10 1018.7 1018.2 0.0
18/03:30am 7.4 3.3 4.5 82 1.3 SE 15 22 8 12 1018.8 1018.3 0.0
18/03:00am 7.5 3.8 4.6 82 1.3 S 13 22 7 12 1019.2 1018.7 0.0
18/02:30am 7.6 3.9 4.6 81 1.3 SSE 13 19 7 10 1019.5 1019.0 0.0
18/02:00am 7.8 4.1 4.4 79 1.5 SSE 13 20 7 11 1019.5 1019.0 0.0
18/01:30am 8.2 2.8 4.6 78 1.6 SE 22 32 12 17 1019.7 1019.2 0.0
18/01:00am 8.9 3.9 4.7 75 1.9 SE 20 28 11 15 1020.4 1019.8 0.0
18/12:30am 9.0 4.0 4.8 75 1.9 SE 20 28 11 15 1021.4 1020.9 0.0
18/12:00am 9.1 4.7 4.9 75 1.9 SSE 17 26 9 14 1022.0 1021.5 0.0
 
Date/Time
WST
Temp
°C
App
Temp
°C
Dew
Point
°C
Rel
Hum
%
Delta-T
°C
Wind Press
QNH
hPa
Press
MSL
hPa
Rain since
9am
mm
Dir  Spd
km/h
Gust
km/h
Spd
kts
Gust
kts
17/11:30pm 9.3 5.0 5.1 75 1.9 SSE 17 26 9 14 1022.4 1021.9 0.0
17/11:00pm 9.8 5.0 5.4 74 2.0 SSE 20 30 11 16 1022.7 1022.2 0.0
17/10:30pm 10.1 5.9 5.9 75 2.0 SSE 17 26 9 14 1022.9 1022.4 0.0
17/10:00pm 10.3 6.1 5.9 74 2.1 SSE 17 26 9 14 1023.3 1022.8 0.0
17/09:30pm 10.6 6.8 5.8 72 2.3 SSE 15 26 8 14 1023.6 1023.1 0.0
17/09:00pm 11.1 6.0 6.0 71 2.4 SSE 22 35 12 19 1023.4 1022.9 0.0
17/08:30pm 11.8 6.3 5.7 66 2.9 SSE 24 35 13 19 1023.4 1022.9 0.0
17/08:00pm 12.3 7.1 5.7 64 3.1 SSE 22 37 12 20 1022.9 1022.4 0.0
17/07:30pm 13.6 7.4 4.5 54 4.3 SSE 26 37 14 20 1022.4 1021.9 0.0
17/07:00pm 14.1 8.7 4.4 52 4.5 SSE 22 37 12 20 1021.9 1021.4 0.0
17/06:30pm 15.0 9.5 3.8 47 5.2 SSE 22 30 12 16 1021.4 1020.9 0.0
17/06:00pm 15.5 9.9 3.3 44 5.6 S 22 30 12 16 1021.0 1020.5 0.0
17/05:30pm 15.6 10.4 3.4 44 5.7 S 20 28 11 15 1020.8 1020.3 0.0
17/05:00pm 15.9 10.6 3.0 42 6.0 S 20 26 11 14 1020.5 1019.9 0.0
17/04:30pm 15.9 11.6 3.0 42 6.0 SSE 15 20 8 11 1020.1 1019.6 0.0
17/04:00pm 15.9 11.3 3.7 44 5.7 S 17 26 9 14 1020.0 1019.5 0.0
17/03:30pm 15.9 10.7 3.4 43 5.8 SSE 20 30 11 16 1019.9 1019.4 0.0
17/03:00pm 15.7 9.8 3.8 45 5.6 SSE 24 33 13 18 1019.8 1019.3 0.0
17/02:30pm 15.9 10.8 4.3 46 5.5 S 20 30 11 16 1020.0 1019.5 0.0
17/02:00pm 16.0 11.1 5.0 48 5.3 SE 20 32 11 17 1020.1 1019.6 0.0
17/01:30pm 15.0 10.1 5.2 52 4.7 SE 20 32 11 17 1020.7 1020.2 0.0
17/01:00pm 15.0 9.0 5.5 53 4.6 SE 26 37 14 20 1021.1 1020.6 0.0
17/12:50pm 14.7 8.3 5.2 53 4.6 SSE 28 46 15 25 1021.2 1020.7 0.0
17/12:30pm 14.9 8.3 4.3 49 5.0 SE 28 39 15 21 1021.4 1020.9 0.0
17/12:00pm 14.9 8.8 4.9 51 4.8 SE 26 39 14 21 1021.6 1021.1 0.0
17/11:30am 14.3 7.7 4.3 51 4.7 SSE 28 41 15 22 1022.1 1021.6 0.0
17/11:00am 15.2 9.2 5.1 51 4.8 SE 26 37 14 20 1022.7 1022.2 0.0
17/10:30am 13.5 7.9 5.2 57 4.0 SE 24 39 13 21 1023.2 1022.7 0.0
17/10:00am 13.4 7.8 5.3 58 3.8 SSE 24 39 13 21 1023.3 1022.8 0.0
17/09:30am 12.6 6.9 4.8 59 3.7 SSE 24 37 13 20 1023.6 1023.1 0.0
17/09:00am 11.4 5.1 5.5 67 2.8 SE 28 43 15 23 1023.6 1023.1 0.0
17/08:30am 11.5 6.2 5.2 65 3.0 SSE 22 35 12 19 1023.5 1023.0 0.0
17/08:00am 10.4 4.9 5.8 73 2.2 SSE 24 39 13 21 1023.4 1022.9 0.0
17/07:30am 10.1 3.8 5.7 74 2.1 SSE 28 41 15 22 1023.0 1022.6 0.0
17/07:00am 9.6 3.4 6.3 80 1.6 SSE 28 35 15 19 1022.8 1022.3 0.0
17/06:30am 9.7 4.6 5.9 77 1.8 SSE 22 35 12 19 1022.4 1021.9 0.0
17/06:00am 9.4 4.3 6.1 80 1.5 SSE 22 32 12 17 1022.2 1021.7 0.0
17/05:30am 9.3 4.6 6.0 80 1.5 SSE 20 32 11 17 1022.0 1021.5 0.0
17/05:00am 9.0 3.6 6.3 83 1.3 S 24 37 13 20 1021.8 1021.3 0.0
17/04:33am 8.7 4.3 7.2 90 0.7 SSE 20 28 11 15 1021.7 1021.2 0.0
17/04:30am 8.6 4.2 7.2 91 0.7 SSE 20 26 11 14 1021.7 1021.2 0.0
17/04:18am 8.6 3.4 7.4 92 0.6 S 24 32 13 17 1021.6 1021.1 0.0
17/04:00am 9.3 3.9 6.2 81 1.5 S 24 32 13 17 1021.6 1021.1 0.0
17/03:30am 9.2 4.4 5.6 78 1.7 S 20 26 11 14 1021.4 1020.9 0.0
17/03:00am 9.3 4.7 5.5 77 1.8 SSE 19 26 10 14 1021.3 1020.8 0.0
17/02:30am 9.7 4.1 5.3 74 2.0 S 24 33 13 18 1021.6 1021.1 0.0
17/02:00am 10.3 4.3 5.5 72 2.2 SSE 26 44 14 24 1021.6 1021.1 0.0
17/01:30am 10.4 5.0 6.2 75 2.0 S 24 35 13 19 1021.7 1021.2 0.0
17/01:00am 10.3 4.9 6.3 76 1.9 S 24 32 13 17 1021.8 1021.3 0.0
17/12:30am 10.2 5.4 5.8 74 2.1 S 20 30 11 16 1021.7 1021.2 0.0
17/12:00am 10.4 5.6 5.8 73 2.2 S 20 30 11 16 1021.6 1021.1 0.0
 
Date/Time
WST
Temp
°C
App
Temp
°C
Dew
Point
°C
Rel
Hum
%
Delta-T
°C
Wind Press
QNH
hPa
Press
MSL
hPa
Rain since
9am
mm
Dir  Spd
km/h
Gust
km/h
Spd
kts
Gust
kts
16/11:30pm 10.3 5.4 5.3 71 2.3 S 20 30 11 16 1021.5 1021.0 0.0
16/11:00pm 10.8 5.9 4.9 67 2.7 S 20 33 11 18 1021.4 1020.9 0.0
16/10:30pm 11.2 6.3 4.9 65 2.9 S 20 32 11 17 1021.5 1021.0 0.0
16/10:00pm 11.7 6.8 5.3 65 3.0 S 20 28 11 15 1021.5 1021.0 0.0
16/09:30pm 12.2 6.5 5.1 62 3.3 SSE 24 33 13 18 1021.3 1020.8 0.0
16/09:00pm 12.7 7.5 5.6 62 3.4 SSE 22 30 12 16 1021.2 1020.7 0.0
16/08:30pm 13.2 8.5 6.1 62 3.4 S 20 30 11 16 1021.0 1020.5 0.0
16/08:00pm 13.6 8.5 6.2 61 3.6 SSE 22 32 12 17 1020.7 1020.2 0.0
16/07:30pm 14.2 8.0 6.3 59 3.9 S 28 41 15 22 1020.4 1019.8 0.0
16/07:00pm 14.8 9.8 6.4 57 4.1 SSE 22 37 12 20 1019.8 1019.3 0.0
16/06:30pm 15.2 9.9 6.7 57 4.2 S 24 33 13 18 1019.2 1018.7 0.0
16/06:00pm 15.8 9.9 7.3 57 4.3 S 28 37 15 20 1018.5 1018.0 0.0
16/05:30pm 16.6 9.8 6.7 52 5.0 S 32 43 17 23 1017.8 1017.2 0.0
16/05:00pm 17.8 10.9 7.2 50 5.4 S 33 56 18 30 1017.2 1016.7 0.0
16/04:54pm 18.5 12.4 6.4 45 6.1 S 28 56 15 30 1017.0 1016.5 0.0
16/04:30pm 18.9 13.4 6.1 43 6.5 SSW 24 43 13 23 1016.7 1016.2 0.0
16/04:00pm 18.5 13.2 6.7 46 6.0 S 24 33 13 18 1016.5 1016.0 0.0
16/03:30pm 19.0 13.1 7.4 47 6.0 S 28 37 15 20 1016.5 1016.0 0.0
16/03:00pm 19.4 14.0 8.1 48 5.9 S 26 35 14 19 1016.3 1015.8 0.0
16/02:30pm 18.2 12.5 8.2 52 5.2 S 28 39 15 21 1016.4 1015.9 0.0
16/02:00pm 19.0 13.8 8.9 52 5.4 S 26 37 14 20 1016.4 1015.9 0.0
16/01:30pm 18.4 13.1 8.4 52 5.3 SSW 26 39 14 21 1016.1 1015.6 0.0
16/01:00pm 18.7 13.0 8.4 51 5.4 S 28 44 15 24 1015.8 1015.2 0.0
16/12:30pm 18.7 13.6 9.2 54 5.1 S 26 33 14 18 1015.7 1015.1 0.0
16/12:00pm 17.0 11.6 9.4 61 4.0 S 28 43 15 23 1016.1 1015.6 0.0
16/11:34am 15.2 7.6 8.9 66 3.3 S 39 59 21 32 1016.8 1016.3 0.0
16/11:30am 15.4 8.1 8.9 65 3.4 SSW 37 52 20 28 1016.7 1016.2 0.0
16/11:00am 16.4 9.1 8.6 60 4.1 SSW 37 50 20 27 1016.0 1015.5 0.0
16/10:30am 17.7 12.6 9.1 57 4.6 SSW 26 33 14 18 1015.4 1014.8 0.0
16/10:00am 17.2 13.3 9.4 60 4.1 SSW 20 30 11 16 1014.6 1014.0 0.0
16/09:30am 16.8 14.2 9.5 62 3.9 SW 13 20 7 11 1014.2 1013.7 0.0
16/09:00am 16.4 13.8 9.3 63 3.7 SW 13 20 7 11 1014.7 1014.1 0.0
16/08:30am 16.4 11.9 10.0 66 3.4 SSW 24 32 13 17 1015.5 1014.9 0.0
16/08:00am 15.1 11.0 10.1 72 2.7 S 22 30 12 16 1015.7 1015.1 0.0
16/07:33am 14.3 9.8 9.9 75 2.3 SSW 24 32 13 17 1015.7 1015.1 0.0
16/07:30am 14.3 9.8 9.9 75 2.3 SSW 24 33 13 18 1015.7 1015.1 0.0
16/07:00am 13.9 9.8 10.1 78 2.0 S 22 35 12 19 1015.3 1014.7 0.0
16/06:30am 13.5 8.6 10.1 80 1.8 SSW 26 33 14 18 1014.9 1014.3 0.0
16/06:00am 13.1 8.6 10.1 82 1.6 S 24 35 13 19 1014.1 1013.6 0.0
16/05:50am 13.1 9.0 10.1 82 1.6 S 22 35 12 19 1014.2 1013.7 0.0
16/05:30am 12.9 8.3 9.5 80 1.8 SSW 24 32 13 17 1013.8 1013.3 0.0

Other formats

Comma delimited format used in spreadsheet applications
http://www.bom.gov.au/fwo/IDW60801/IDW60801.94637.axf

JavaScript Object Notation format (JSON) in row-major order
http://www.bom.gov.au/fwo/IDW60801/IDW60801.94637.json

Data quality

Most of these data are generated automatically and are frequently updated. Quality checks on data are not normally performed. It is possible for incorrect values to appear. Refer to information at About Latest Weather Observations and please check the disclaimer before using these data.